logo
Search for airport 
image banner adimage banner adimage banner ad
image banner ad

YTSI - Tasman Island

Located in Cape Pillar, Australia

ICAO - , IATA -

Data provided by Airmate  

General information

Coordinates: S43°14'23" E148°0'9"
Elevation is 799 feet MSL.
Magnetic variation is 16° East
View others Airports in Tasmania

Operational data

Special qualification required
Current time UTC:
Current local time:
Weather at : YMHB - Hobart ( 60 km )
METAR: YMHB 171732Z AUTO 33004KT 6000 -SHRA SCT012 SCT017 BKN020 07/07 Q1021
TAF: TAF AMD YMHB 171731Z 1718/1818 31005KT 9999 -SHRA FEW004 BKN022 BECMG 1800/1802 21006KT 9999 -SHRA SCT030 SCT040 FM181200 31006KT 9999 -SHRA SCT020 BKN030 INTER 1718/1800 4000 SHRA BKN015 BKN025 INTER 1812/1818 4000 SHRA BKN015 BKN025
View NOTAMs / SUP AIP / TFR affecting this airport [VIEW]
Communications frequencies: [VIEW]

Runways:

Airport contact information

Address: Cape Pillar Australia

Satellite view of YTSI